Wind From: 20-06-2018 11:00 Until: 22:00 warning for: Wind Level: Yellow info button
suomi:
Tuulivaroitus maa-alueille: Länsituuli on voimakasta keskipäivästä alkaen, tuulen nopeus puuskissa 15 m/s.

svenska:
Vindvarning för landområden: Från och med middagen är den västliga vinden kraftigt, i vindbyarna 15 m/s.

english:
Wind warning for land areas: From noon on, strong winds from west may bring strong gusts of 15 m/s. 


Thunder radar more information blitzortung!


Löydät sääaseman tiedot myös:

European Weather Network

Finland Weather Exchange

Weather Underground

AWEKAS



Weather Underground säähistoriasivu

Päivittäin yhteenveto Marraskuu 12, 2017 Yksiköt:  Englantilaiset    Metriset   Molemmat
« Edellinen Päivä
Seuraava Päivä »
Päivittäin Viikoittain Kuukausittain Vuosittain Mukautettu
  Korkea: Matala: Keskiarvo:
Lämpötila: TemperatureC °F 0.4 °F 1.1 °F
Kastepiste: DewpointC °F 0.0 °F 0.8 °F
Kosteus: Humidity % 97 % 97 %
Tuulen nopeus: WindSpeedKMH mph 0.0 mph 0 mph
Tuulenpuuska: WindSpeedGustKMH mph - -
Tuuli:- - North
Ilmanpaine: PressurehPa in 981.9 in -
Sade: 0.0 in    
Historical Graphs
 
 
Taulukkotiedot Marraskuu 12, 2017
Aika Lämpötila Kastepiste Ilmanpaine Tuuli Tuulen nopeus Tuulenpuuska Kosteus Sademäärä (tunneittain)
TemperatureC °F DewpointC °F PressurehPa in Calm     Humidity % HourlyPrecipMM in
00:00 1.4 °F 1.0 °F 982.6 in Calm     97 % 0.0 in
00:15 1.3 °F 0.9 °F 982.6 in Calm     97 % 0.0 in
00:30 1.1 °F 0.6 °F 982.6 in Calm     97 % 0.0 in
00:45 0.8 °F 0.4 °F 982.6 in Calm     97 % 0.0 in
01:00 0.7 °F 0.2 °F 982.6 in Calm     97 % 0.0 in
01:15 0.6 °F 0.1 °F 982.3 in Calm     97 % 0.0 in
01:30 0.4 °F 0.0 °F 982.3 in Calm     97 % 0.0 in
01:45 0.4 °F 0.0 °F 982.3 in Calm     97 % 0.0 in
02:00 0.4 °F 0.0 °F 982.3 in Calm     97 % 0.0 in
02:15 0.4 °F 0.0 °F 982.3 in Calm     97 % 0.0 in
02:30 0.4 °F 0.0 °F 982.3 in Calm     97 % 0.0 in
02:45 0.4 °F 0.0 °F 981.9 in Calm     97 % 0.0 in
03:00 0.4 °F 0.0 °F 982.3 in Calm     97 % 0.0 in
03:15 0.4 °F 0.0 °F 982.3 in Calm     97 % 0.0 in
03:30 0.4 °F 0.0 °F 982.3 in Calm     97 % 0.0 in
03:45 0.5 °F 0.1 °F 982.3 in Calm     97 % 0.0 in
04:00 0.6 °F 0.1 °F 982.3 in Calm     97 % 0.0 in
04:15 0.6 °F 0.1 °F 982.3 in Calm     97 % 0.0 in
04:30 0.6 °F 0.3 °F 981.9 in Calm     98 % 0.0 in
04:45 0.7 °F 0.4 °F 982.3 in Calm     98 % 0.0 in
05:00 0.7 °F 0.4 °F 982.3 in Calm     98 % 0.0 in
05:15 0.7 °F 0.4 °F 982.3 in Calm     98 % 0.0 in
05:30 0.8 °F 0.5 °F 982.3 in Calm     98 % 0.0 in
05:45 0.8 °F 0.6 °F 982.3 in Calm     98 % 0.0 in
06:00 0.8 °F 0.6 °F 982.6 in Calm     98 % 0.0 in
06:15 0.9 °F 0.6 °F 982.6 in Calm     98 % 0.0 in
06:30 0.8 °F 0.6 °F 982.6 in Calm     98 % 0.0 in
06:45 0.9 °F 0.6 °F 982.6 in Calm     98 % 0.0 in
07:00 0.9 °F 0.7 °F 982.6 in Calm     98 % 0.0 in
07:15 0.9 °F 0.7 °F 982.6 in Calm     98 % 0.0 in
07:30 0.9 °F 0.7 °F 983.0 in Calm     98 % 0.0 in
07:45 0.9 °F 0.7 °F 983.0 in Calm     98 % 0.0 in
08:00 0.9 °F 0.6 °F 983.0 in Calm     98 % 0.0 in
08:15 0.8 °F 0.5 °F 983.0 in Calm     98 % 0.0 in
08:30 0.8 °F 0.5 °F 983.3 in Calm     98 % 0.0 in
08:45 0.8 °F 0.5 °F 983.3 in Calm     98 % 0.0 in
09:00 0.7 °F 0.4 °F 983.3 in Calm     98 % 0.0 in
09:15 0.7 °F 0.4 °F 983.3 in Calm     98 % 0.0 in
09:30 0.7 °F 0.4 °F 983.3 in Calm     98 % 0.0 in
09:45 0.8 °F 0.5 °F 983.6 in Calm     98 % 0.0 in
10:00 0.8 °F 0.6 °F 983.6 in Calm     98 % 0.0 in
10:15 0.9 °F 0.7 °F 983.6 in Calm     98 % 0.0 in
10:30 1.1 °F 0.8 °F 983.6 in Calm     98 % 0.0 in
10:45 1.1 °F 0.8 °F 984.0 in Calm     98 % 0.0 in
11:00 1.2 °F 0.9 °F 984.0 in Calm     98 % 0.0 in
11:15 1.3 °F 1.1 °F 984.0 in Calm     98 % 0.0 in
11:30 1.4 °F 1.1 °F 984.0 in Calm     98 % 0.0 in
11:45 1.4 °F 1.1 °F 984.0 in Calm     98 % 0.0 in
12:00 1.4 °F 1.2 °F 984.0 in Calm     98 % 0.0 in
12:15 1.5 °F 1.2 °F 984.0 in Calm     98 % 0.0 in
12:30 1.6 °F 1.3 °F 984.3 in Calm     98 % 0.0 in
12:45 1.6 °F 1.3 °F 984.3 in Calm     98 % 0.0 in
13:00 1.7 °F 1.4 °F 984.3 in Calm     98 % 0.0 in
13:15 1.7 °F 1.4 °F 984.3 in Calm     98 % 0.0 in
13:30 1.7 °F 1.4 °F 984.6 in Calm     98 % 0.0 in
13:45 1.7 °F 1.4 °F 984.6 in Calm     98 % 0.0 in
14:00 1.7 °F 1.4 °F 984.6 in Calm     98 % 0.0 in
14:15 1.7 °F 1.4 °F 984.6 in Calm     98 % 0.0 in
14:30 1.7 °F 1.4 °F 985.0 in Calm     98 % 0.0 in
14:45 1.7 °F 1.4 °F 985.0 in Calm     98 % 0.0 in
15:00 1.6 °F 1.3 °F 985.0 in Calm     98 % 0.0 in
15:15 1.6 °F 1.3 °F 985.0 in Calm     98 % 0.0 in
15:30 1.5 °F 1.2 °F 985.0 in Calm     98 % 0.0 in
15:45 1.5 °F 1.2 °F 985.3 in Calm     98 % 0.0 in
16:00 1.4 °F 1.1 °F 985.3 in Calm     98 % 0.0 in
16:15 1.2 °F 0.9 °F 985.7 in Calm     98 % 0.0 in
16:30 1.2 °F 0.9 °F 985.7 in Calm     98 % 0.0 in
16:45 1.2 °F 0.9 °F 985.7 in Calm     98 % 0.0 in
17:00 1.2 °F 0.9 °F 985.7 in Calm     98 % 0.0 in
17:15 1.3 °F 1.0 °F 986.0 in Calm     98 % 0.0 in
17:30 1.3 °F 1.1 °F 986.0 in Calm     98 % 0.0 in
17:45 1.4 °F 1.1 °F 986.3 in Calm     98 % 0.0 in
18:00 1.3 °F 1.1 °F 986.3 in Calm     98 % 0.0 in
18:15 1.3 °F 1.1 °F 986.3 in Calm     98 % 0.0 in
18:30 1.3 °F 1.1 °F 986.7 in Calm     98 % 0.0 in
18:45 1.3 °F 1.1 °F 986.7 in Calm     98 % 0.0 in
19:00 1.3 °F 1.0 °F 987.0 in Calm     98 % 0.0 in
19:15 1.2 °F 0.9 °F 987.0 in Calm     98 % 0.0 in
19:30 1.2 °F 0.9 °F 987.4 in Calm     98 % 0.0 in
19:45 1.2 °F 0.9 °F 987.4 in Calm     98 % 0.0 in
20:15 1.2 °F 0.9 °F 987.7 in Calm     98 % 0.0 in
20:30 1.2 °F 0.9 °F 988.0 in Calm     98 % 0.0 in
20:45 1.3 °F 1.0 °F 988.0 in Calm     98 % 0.0 in
21:00 1.3 °F 1.1 °F 988.4 in Calm     98 % 0.0 in
21:15 1.4 °F 1.1 °F 988.4 in Calm     98 % 0.0 in
21:30 1.4 °F 1.1 °F 988.7 in Calm     98 % 0.0 in
21:45 1.4 °F 1.1 °F 988.7 in Calm     98 % 0.0 in
22:00 1.4 °F 1.2 °F 989.1 in Calm     98 % 0.0 in
22:15 1.4 °F 1.2 °F 989.1 in Calm     98 % 0.0 in
22:30 1.5 °F 1.2 °F 989.4 in Calm     98 % 0.0 in
22:45 1.5 °F 1.2 °F 989.7 in Calm     98 % 0.0 in
23:00 1.5 °F 1.2 °F 989.7 in Calm     98 % 0.0 in
23:15 1.5 °F 1.2 °F 989.7 in Calm     98 % 0.0 in
23:30 1.4 °F 1.2 °F 990.1 in Calm     98 % 0.0 in
23:45 1.4 °F 1.2 °F 990.4 in Calm     98 % 0.0 in
Esan sääasema
Terveisin Weather Underground - 2.75 mb

Alkuperäinen skripti  Jim McMurry - jmcmurry@mwt.net Sovitettu myös templatelle  Wim van der Kuil - Leuven-Template.eu

Laitteet joita käytämme:

Sääasema
Davis VP2

Sääasemaohjelma
Cumulus

Sääaseman tietokone
Asus EeePC

Palveluntarjoaja
Suncomet

Davis VP2

Cumulus

Asus EeePC

Suncomet